sensor_id;sensor_type;location;lat;lon;timestamp;P1;durP1;ratioP1;P2;durP2;ratioP2
41946;SDS011;27638;42.184;24.848;2022-09-02T00:00:52;17.83;;;9.90;;
41946;SDS011;27638;42.184;24.848;2022-09-02T00:03:24;17.77;;;9.87;;
41946;SDS011;27638;42.184;24.848;2022-09-02T00:05:55;18.92;;;10.45;;
41946;SDS011;27638;42.184;24.848;2022-09-02T00:08:21;21.65;;;10.77;;
41946;SDS011;27638;42.184;24.848;2022-09-02T00:10:48;15.32;;;10.05;;
41946;SDS011;27638;42.184;24.848;2022-09-02T00:13:14;16.38;;;11.10;;
41946;SDS011;27638;42.184;24.848;2022-09-02T00:15:44;18.80;;;10.80;;
41946;SDS011;27638;42.184;24.848;2022-09-02T00:18:11;19.50;;;11.38;;
41946;SDS011;27638;42.184;24.848;2022-09-02T00:20:38;20.20;;;11.00;;
41946;SDS011;27638;42.184;24.848;2022-09-02T00:23:06;19.15;;;11.38;;
41946;SDS011;27638;42.184;24.848;2022-09-02T00:25:32;18.73;;;11.18;;
41946;SDS011;27638;42.184;24.848;2022-09-02T00:27:59;18.92;;;11.50;;
41946;SDS011;27638;42.184;24.848;2022-09-02T00:30:24;21.73;;;12.02;;
41946;SDS011;27638;42.184;24.848;2022-09-02T00:32:50;16.83;;;10.75;;
41946;SDS011;27638;42.184;24.848;2022-09-02T00:35:16;20.05;;;11.35;;
41946;SDS011;27638;42.184;24.848;2022-09-02T00:37:41;17.58;;;11.75;;
41946;SDS011;27638;42.184;24.848;2022-09-02T00:40:07;22.27;;;11.77;;
41946;SDS011;27638;42.184;24.848;2022-09-02T00:42:35;18.65;;;11.57;;
41946;SDS011;27638;42.184;24.848;2022-09-02T00:45:01;15.80;;;11.10;;
41946;SDS011;27638;42.184;24.848;2022-09-02T00:47:31;16.63;;;10.50;;
41946;SDS011;27638;42.184;24.848;2022-09-02T00:49:57;21.63;;;11.10;;
41946;SDS011;27638;42.184;24.848;2022-09-02T00:52:28;22.92;;;10.95;;
41946;SDS011;27638;42.184;24.848;2022-09-02T00:55:02;18.85;;;10.98;;
41946;SDS011;27638;42.184;24.848;2022-09-02T00:57:53;24.92;;;11.90;;
41946;SDS011;27638;42.184;24.848;2022-09-02T01:00:24;20.75;;;12.13;;
41946;SDS011;27638;42.184;24.848;2022-09-02T01:03:02;22.55;;;11.35;;
41946;SDS011;27638;42.184;24.848;2022-09-02T01:05:31;27.15;;;13.38;;
41946;SDS011;27638;42.184;24.848;2022-09-02T01:07:59;26.83;;;13.13;;
41946;SDS011;27638;42.184;24.848;2022-09-02T01:10:29;23.70;;;14.05;;
41946;SDS011;27638;42.184;24.848;2022-09-02T01:12:59;27.92;;;14.57;;
41946;SDS011;27638;42.184;24.848;2022-09-02T01:15:31;22.85;;;14.25;;
41946;SDS011;27638;42.184;24.848;2022-09-02T01:17:57;23.02;;;13.98;;
41946;SDS011;27638;42.184;24.848;2022-09-02T01:20:24;21.40;;;14.32;;
41946;SDS011;27638;42.184;24.848;2022-09-02T01:22:50;24.90;;;13.88;;
41946;SDS011;27638;42.184;24.848;2022-09-02T01:25:18;30.67;;;14.90;;
41946;SDS011;27638;42.184;24.848;2022-09-02T01:27:48;23.48;;;13.85;;
41946;SDS011;27638;42.184;24.848;2022-09-02T01:30:16;27.35;;;15.38;;
41946;SDS011;27638;42.184;24.848;2022-09-02T01:32:44;26.20;;;15.90;;
41946;SDS011;27638;42.184;24.848;2022-09-02T01:35:10;27.27;;;15.38;;
41946;SDS011;27638;42.184;24.848;2022-09-02T01:37:36;26.73;;;15.07;;
41946;SDS011;27638;42.184;24.848;2022-09-02T01:40:03;19.73;;;14.50;;
41946;SDS011;27638;42.184;24.848;2022-09-02T01:42:30;28.90;;;14.38;;
41946;SDS011;27638;42.184;24.848;2022-09-02T01:44:56;25.25;;;15.38;;
41946;SDS011;27638;42.184;24.848;2022-09-02T01:47:22;25.23;;;15.20;;
41946;SDS011;27638;42.184;24.848;2022-09-02T01:49:49;21.35;;;13.85;;
41946;SDS011;27638;42.184;24.848;2022-09-02T01:52:15;25.58;;;15.07;;
41946;SDS011;27638;42.184;24.848;2022-09-02T01:54:43;24.65;;;15.07;;
41946;SDS011;27638;42.184;24.848;2022-09-02T01:57:09;24.35;;;15.65;;
41946;SDS011;27638;42.184;24.848;2022-09-02T01:59:34;24.88;;;15.07;;
41946;SDS011;27638;42.184;24.848;2022-09-02T02:02:00;27.55;;;15.00;;
41946;SDS011;27638;42.184;24.848;2022-09-02T02:04:26;22.30;;;14.43;;
41946;SDS011;27638;42.184;24.848;2022-09-02T02:06:52;26.40;;;15.10;;
41946;SDS011;27638;42.184;24.848;2022-09-02T02:09:18;20.05;;;14.85;;
41946;SDS011;27638;42.184;24.848;2022-09-02T02:11:44;24.80;;;15.80;;
41946;SDS011;27638;42.184;24.848;2022-09-02T02:14:11;22.33;;;14.68;;
41946;SDS011;27638;42.184;24.848;2022-09-02T02:16:37;28.98;;;14.93;;
41946;SDS011;27638;42.184;24.848;2022-09-02T02:19:02;28.40;;;15.07;;
41946;SDS011;27638;42.184;24.848;2022-09-02T02:21:29;23.08;;;14.57;;
41946;SDS011;27638;42.184;24.848;2022-09-02T02:23:55;26.33;;;13.65;;
41946;SDS011;27638;42.184;24.848;2022-09-02T02:26:21;20.98;;;14.00;;
41946;SDS011;27638;42.184;24.848;2022-09-02T02:28:47;25.00;;;14.30;;
41946;SDS011;27638;42.184;24.848;2022-09-02T02:31:13;22.83;;;13.93;;
41946;SDS011;27638;42.184;24.848;2022-09-02T02:33:38;24.73;;;14.10;;
41946;SDS011;27638;42.184;24.848;2022-09-02T02:36:05;20.98;;;14.05;;
41946;SDS011;27638;42.184;24.848;2022-09-02T02:38:32;20.50;;;13.88;;
41946;SDS011;27638;42.184;24.848;2022-09-02T02:40:59;19.92;;;13.65;;
41946;SDS011;27638;42.184;24.848;2022-09-02T02:43:26;25.25;;;13.73;;
41946;SDS011;27638;42.184;24.848;2022-09-02T02:45:51;21.35;;;13.68;;
41946;SDS011;27638;42.184;24.848;2022-09-02T02:48:18;21.98;;;14.48;;
41946;SDS011;27638;42.184;24.848;2022-09-02T02:50:45;23.63;;;13.90;;
41946;SDS011;27638;42.184;24.848;2022-09-02T02:53:11;21.75;;;13.80;;
41946;SDS011;27638;42.184;24.848;2022-09-02T02:55:37;25.15;;;13.55;;
41946;SDS011;27638;42.184;24.848;2022-09-02T02:58:03;24.27;;;13.55;;
41946;SDS011;27638;42.184;24.848;2022-09-02T03:00:30;23.88;;;13.63;;
41946;SDS011;27638;42.184;24.848;2022-09-02T03:02:58;23.13;;;13.57;;
41946;SDS011;27638;42.184;24.848;2022-09-02T03:05:25;25.73;;;14.70;;
41946;SDS011;27638;42.184;24.848;2022-09-02T03:07:52;23.48;;;13.95;;
41946;SDS011;27638;42.184;24.848;2022-09-02T03:10:18;24.98;;;14.60;;
41946;SDS011;27638;42.184;24.848;2022-09-02T03:12:44;28.13;;;15.60;;
41946;SDS011;27638;42.184;24.848;2022-09-02T03:15:11;27.08;;;15.98;;
41946;SDS011;27638;42.184;24.848;2022-09-02T03:17:39;21.60;;;14.68;;
41946;SDS011;27638;42.184;24.848;2022-09-02T03:20:05;22.65;;;15.25;;
41946;SDS011;27638;42.184;24.848;2022-09-02T03:22:31;17.80;;;13.88;;
41946;SDS011;27638;42.184;24.848;2022-09-02T03:25:00;18.95;;;14.75;;
41946;SDS011;27638;42.184;24.848;2022-09-02T03:27:25;26.98;;;14.95;;
41946;SDS011;27638;42.184;24.848;2022-09-02T03:29:51;27.92;;;16.13;;
41946;SDS011;27638;42.184;24.848;2022-09-02T03:32:16;23.63;;;15.13;;
41946;SDS011;27638;42.184;24.848;2022-09-02T03:34:42;25.17;;;14.40;;
41946;SDS011;27638;42.184;24.848;2022-09-02T03:37:07;20.85;;;13.77;;
41946;SDS011;27638;42.184;24.848;2022-09-02T03:39:34;25.75;;;14.48;;
41946;SDS011;27638;42.184;24.848;2022-09-02T03:42:01;21.95;;;13.65;;
41946;SDS011;27638;42.184;24.848;2022-09-02T03:44:26;23.38;;;14.80;;
41946;SDS011;27638;42.184;24.848;2022-09-02T03:46:52;20.02;;;13.65;;
41946;SDS011;27638;42.184;24.848;2022-09-02T03:49:17;23.13;;;14.25;;
41946;SDS011;27638;42.184;24.848;2022-09-02T03:51:43;24.13;;;15.05;;
41946;SDS011;27638;42.184;24.848;2022-09-02T03:54:08;25.25;;;14.35;;
41946;SDS011;27638;42.184;24.848;2022-09-02T03:56:34;20.80;;;12.48;;
41946;SDS011;27638;42.184;24.848;2022-09-02T03:59:01;24.00;;;13.05;;
41946;SDS011;27638;42.184;24.848;2022-09-02T04:01:27;22.35;;;12.98;;
41946;SDS011;27638;42.184;24.848;2022-09-02T04:03:53;27.15;;;14.13;;
41946;SDS011;27638;42.184;24.848;2022-09-02T04:06:20;21.75;;;13.00;;
41946;SDS011;27638;42.184;24.848;2022-09-02T04:08:48;21.08;;;14.02;;
41946;SDS011;27638;42.184;24.848;2022-09-02T04:11:15;19.85;;;12.95;;
41946;SDS011;27638;42.184;24.848;2022-09-02T04:13:43;17.23;;;13.05;;
41946;SDS011;27638;42.184;24.848;2022-09-02T04:16:14;20.00;;;13.40;;
41946;SDS011;27638;42.184;24.848;2022-09-02T04:18:41;20.35;;;13.02;;
41946;SDS011;27638;42.184;24.848;2022-09-02T04:21:08;19.33;;;13.05;;
41946;SDS011;27638;42.184;24.848;2022-09-02T04:23:35;22.70;;;12.95;;
41946;SDS011;27638;42.184;24.848;2022-09-02T04:26:19;24.50;;;14.05;;
41946;SDS011;27638;42.184;24.848;2022-09-02T04:31:12;22.80;;;13.30;;
41946;SDS011;27638;42.184;24.848;2022-09-02T04:33:39;27.38;;;13.82;;
41946;SDS011;27638;42.184;24.848;2022-09-02T04:36:06;27.63;;;13.57;;
41946;SDS011;27638;42.184;24.848;2022-09-02T04:38:32;18.83;;;13.50;;
41946;SDS011;27638;42.184;24.848;2022-09-02T04:40:59;23.05;;;13.85;;
41946;SDS011;27638;42.184;24.848;2022-09-02T04:43:24;21.15;;;13.32;;
41946;SDS011;27638;42.184;24.848;2022-09-02T04:45:49;24.85;;;13.45;;
41946;SDS011;27638;42.184;24.848;2022-09-02T04:48:16;21.15;;;12.55;;
41946;SDS011;27638;42.184;24.848;2022-09-02T04:50:43;23.40;;;13.00;;
41946;SDS011;27638;42.184;24.848;2022-09-02T04:53:10;22.30;;;12.73;;
41946;SDS011;27638;42.184;24.848;2022-09-02T04:55:39;21.50;;;12.70;;
41946;SDS011;27638;42.184;24.848;2022-09-02T04:58:06;20.52;;;13.05;;
41946;SDS011;27638;42.184;24.848;2022-09-02T05:00:32;20.48;;;12.50;;
41946;SDS011;27638;42.184;24.848;2022-09-02T05:02:58;27.23;;;13.27;;
41946;SDS011;27638;42.184;24.848;2022-09-02T05:05:24;18.17;;;12.50;;
41946;SDS011;27638;42.184;24.848;2022-09-02T05:07:49;19.83;;;13.02;;
41946;SDS011;27638;42.184;24.848;2022-09-02T05:10:15;21.38;;;11.98;;
41946;SDS011;27638;42.184;24.848;2022-09-02T05:12:40;22.15;;;12.70;;
41946;SDS011;27638;42.184;24.848;2022-09-02T05:15:07;18.42;;;12.15;;
41946;SDS011;27638;42.184;24.848;2022-09-02T05:17:34;18.60;;;11.23;;
41946;SDS011;27638;42.184;24.848;2022-09-02T05:20:01;27.15;;;11.82;;
41946;SDS011;27638;42.184;24.848;2022-09-02T05:22:28;21.45;;;11.63;;
41946;SDS011;27638;42.184;24.848;2022-09-02T05:24:54;23.15;;;10.60;;
41946;SDS011;27638;42.184;24.848;2022-09-02T05:27:20;27.20;;;12.10;;
41946;SDS011;27638;42.184;24.848;2022-09-02T05:29:47;15.98;;;11.45;;
41946;SDS011;27638;42.184;24.848;2022-09-02T05:32:13;15.70;;;11.07;;
41946;SDS011;27638;42.184;24.848;2022-09-02T05:34:39;24.00;;;12.02;;
41946;SDS011;27638;42.184;24.848;2022-09-02T05:37:04;25.60;;;11.63;;
41946;SDS011;27638;42.184;24.848;2022-09-02T05:39:30;18.30;;;11.60;;
41946;SDS011;27638;42.184;24.848;2022-09-02T05:41:56;21.17;;;11.77;;
41946;SDS011;27638;42.184;24.848;2022-09-02T05:44:21;16.25;;;10.82;;
41946;SDS011;27638;42.184;24.848;2022-09-02T05:46:47;18.88;;;10.52;;
41946;SDS011;27638;42.184;24.848;2022-09-02T05:49:12;16.75;;;11.38;;
41946;SDS011;27638;42.184;24.848;2022-09-02T05:51:49;18.13;;;10.52;;
41946;SDS011;27638;42.184;24.848;2022-09-02T05:54:21;19.40;;;10.60;;
41946;SDS011;27638;42.184;24.848;2022-09-02T05:56:50;13.68;;;9.27;;
41946;SDS011;27638;42.184;24.848;2022-09-02T05:59:19;16.85;;;10.45;;
41946;SDS011;27638;42.184;24.848;2022-09-02T06:01:47;18.73;;;9.85;;
41946;SDS011;27638;42.184;24.848;2022-09-02T06:04:13;16.02;;;10.30;;
41946;SDS011;27638;42.184;24.848;2022-09-02T06:06:39;15.25;;;10.40;;
41946;SDS011;27638;42.184;24.848;2022-09-02T06:09:06;17.20;;;9.20;;
41946;SDS011;27638;42.184;24.848;2022-09-02T06:11:33;17.67;;;10.25;;
41946;SDS011;27638;42.184;24.848;2022-09-02T06:14:04;16.70;;;8.65;;
41946;SDS011;27638;42.184;24.848;2022-09-02T06:16:31;15.57;;;10.18;;
41946;SDS011;27638;42.184;24.848;2022-09-02T06:18:57;18.40;;;9.73;;
41946;SDS011;27638;42.184;24.848;2022-09-02T06:21:23;17.60;;;10.25;;
41946;SDS011;27638;42.184;24.848;2022-09-02T06:23:49;17.95;;;10.32;;
41946;SDS011;27638;42.184;24.848;2022-09-02T06:26:14;19.38;;;10.10;;
41946;SDS011;27638;42.184;24.848;2022-09-02T06:28:41;16.58;;;9.73;;
41946;SDS011;27638;42.184;24.848;2022-09-02T06:31:11;21.65;;;10.65;;
41946;SDS011;27638;42.184;24.848;2022-09-02T06:33:42;16.52;;;9.32;;
41946;SDS011;27638;42.184;24.848;2022-09-02T06:36:10;20.00;;;8.95;;
41946;SDS011;27638;42.184;24.848;2022-09-02T06:38:39;14.38;;;8.93;;
41946;SDS011;27638;42.184;24.848;2022-09-02T06:41:09;15.60;;;8.95;;
41946;SDS011;27638;42.184;24.848;2022-09-02T06:43:36;18.50;;;9.40;;
41946;SDS011;27638;42.184;24.848;2022-09-02T06:46:02;21.60;;;8.80;;
41946;SDS011;27638;42.184;24.848;2022-09-02T06:48:27;15.75;;;8.93;;
41946;SDS011;27638;42.184;24.848;2022-09-02T06:50:53;18.23;;;9.90;;
41946;SDS011;27638;42.184;24.848;2022-09-02T06:53:19;14.35;;;10.13;;
41946;SDS011;27638;42.184;24.848;2022-09-02T06:55:45;19.08;;;9.90;;
41946;SDS011;27638;42.184;24.848;2022-09-02T06:58:12;17.23;;;10.98;;
41946;SDS011;27638;42.184;24.848;2022-09-02T07:00:38;18.90;;;10.18;;
41946;SDS011;27638;42.184;24.848;2022-09-02T07:03:05;17.98;;;10.80;;
41946;SDS011;27638;42.184;24.848;2022-09-02T07:08:25;20.58;;;11.15;;
41946;SDS011;27638;42.184;24.848;2022-09-02T07:10:50;17.80;;;9.98;;
41946;SDS011;27638;42.184;24.848;2022-09-02T07:13:15;16.90;;;10.25;;
41946;SDS011;27638;42.184;24.848;2022-09-02T07:15:41;17.08;;;9.52;;
41946;SDS011;27638;42.184;24.848;2022-09-02T07:18:06;16.60;;;10.25;;
41946;SDS011;27638;42.184;24.848;2022-09-02T07:20:32;16.23;;;11.13;;
41946;SDS011;27638;42.184;24.848;2022-09-02T07:22:57;15.43;;;11.07;;
41946;SDS011;27638;42.184;24.848;2022-09-02T07:25:23;15.57;;;10.25;;
41946;SDS011;27638;42.184;24.848;2022-09-02T07:27:48;16.73;;;10.48;;
41946;SDS011;27638;42.184;24.848;2022-09-02T07:30:15;15.35;;;10.15;;
41946;SDS011;27638;42.184;24.848;2022-09-02T07:32:41;13.65;;;9.77;;
41946;SDS011;27638;42.184;24.848;2022-09-02T07:35:07;16.85;;;9.70;;
41946;SDS011;27638;42.184;24.848;2022-09-02T07:37:33;17.65;;;10.27;;
41946;SDS011;27638;42.184;24.848;2022-09-02T07:40:00;20.00;;;10.05;;
41946;SDS011;27638;42.184;24.848;2022-09-02T07:42:27;15.02;;;9.07;;
41946;SDS011;27638;42.184;24.848;2022-09-02T07:44:53;17.33;;;9.63;;
41946;SDS011;27638;42.184;24.848;2022-09-02T07:47:19;15.35;;;9.13;;
41946;SDS011;27638;42.184;24.848;2022-09-02T07:49:45;17.80;;;8.98;;
41946;SDS011;27638;42.184;24.848;2022-09-02T07:52:10;16.10;;;9.25;;
41946;SDS011;27638;42.184;24.848;2022-09-02T07:54:36;14.50;;;8.98;;
41946;SDS011;27638;42.184;24.848;2022-09-02T07:57:01;18.92;;;9.57;;
41946;SDS011;27638;42.184;24.848;2022-09-02T07:59:28;12.77;;;9.23;;
41946;SDS011;27638;42.184;24.848;2022-09-02T08:01:54;14.65;;;9.75;;
41946;SDS011;27638;42.184;24.848;2022-09-02T08:04:20;16.80;;;10.23;;
41946;SDS011;27638;42.184;24.848;2022-09-02T08:06:48;20.95;;;9.38;;
41946;SDS011;27638;42.184;24.848;2022-09-02T08:09:16;15.10;;;8.73;;
41946;SDS011;27638;42.184;24.848;2022-09-02T08:11:43;15.38;;;8.80;;
41946;SDS011;27638;42.184;24.848;2022-09-02T08:14:12;21.40;;;9.45;;
41946;SDS011;27638;42.184;24.848;2022-09-02T08:16:41;16.33;;;8.82;;
41946;SDS011;27638;42.184;24.848;2022-09-02T08:19:06;14.70;;;9.20;;
41946;SDS011;27638;42.184;24.848;2022-09-02T08:21:32;15.82;;;8.88;;
41946;SDS011;27638;42.184;24.848;2022-09-02T08:23:58;22.15;;;9.25;;
41946;SDS011;27638;42.184;24.848;2022-09-02T08:26:24;16.23;;;9.70;;
41946;SDS011;27638;42.184;24.848;2022-09-02T08:28:52;17.92;;;9.63;;
41946;SDS011;27638;42.184;24.848;2022-09-02T08:31:21;14.77;;;9.65;;
41946;SDS011;27638;42.184;24.848;2022-09-02T08:33:46;17.90;;;9.68;;
41946;SDS011;27638;42.184;24.848;2022-09-02T08:36:12;21.98;;;10.13;;
41946;SDS011;27638;42.184;24.848;2022-09-02T08:38:39;18.17;;;9.70;;
41946;SDS011;27638;42.184;24.848;2022-09-02T08:41:25;14.80;;;9.90;;
41946;SDS011;27638;42.184;24.848;2022-09-02T08:43:57;17.50;;;8.98;;
41946;SDS011;27638;42.184;24.848;2022-09-02T08:46:26;19.20;;;9.73;;
41946;SDS011;27638;42.184;24.848;2022-09-02T08:53:56;24.08;;;10.80;;
41946;SDS011;27638;42.184;24.848;2022-09-02T08:56:28;18.58;;;10.90;;
41946;SDS011;27638;42.184;24.848;2022-09-02T08:58:55;15.95;;;9.73;;
41946;SDS011;27638;42.184;24.848;2022-09-02T09:07:48;19.67;;;10.55;;
41946;SDS011;27638;42.184;24.848;2022-09-02T09:22:19;19.13;;;11.65;;
41946;SDS011;27638;42.184;24.848;2022-09-02T09:27:21;23.55;;;12.20;;
41946;SDS011;27638;42.184;24.848;2022-09-02T09:29:47;20.30;;;13.43;;
41946;SDS011;27638;42.184;24.848;2022-09-02T09:39:55;20.85;;;13.20;;
41946;SDS011;27638;42.184;24.848;2022-09-02T09:42:31;21.30;;;12.57;;
41946;SDS011;27638;42.184;24.848;2022-09-02T09:45:20;17.55;;;13.43;;
41946;SDS011;27638;42.184;24.848;2022-09-02T09:53:21;19.10;;;12.90;;
41946;SDS011;27638;42.184;24.848;2022-09-02T09:58:21;22.90;;;13.43;;
41946;SDS011;27638;42.184;24.848;2022-09-02T10:00:54;19.60;;;13.48;;
41946;SDS011;27638;42.184;24.848;2022-09-02T10:03:27;26.80;;;14.13;;
41946;SDS011;27638;42.184;24.848;2022-09-02T10:05:55;27.77;;;16.40;;
41946;SDS011;27638;42.184;24.848;2022-09-02T10:08:23;48.17;;;20.55;;
41946;SDS011;27638;42.184;24.848;2022-09-02T10:13:23;38.47;;;22.45;;
41946;SDS011;27638;42.184;24.848;2022-09-02T10:18:30;32.22;;;22.70;;
41946;SDS011;27638;42.184;24.848;2022-09-02T10:26:57;35.67;;;23.98;;
41946;SDS011;27638;42.184;24.848;2022-09-02T10:32:23;36.55;;;24.95;;
41946;SDS011;27638;42.184;24.848;2022-09-02T10:40:37;37.92;;;24.45;;
41946;SDS011;27638;42.184;24.848;2022-09-02T10:43:23;36.15;;;24.20;;
41946;SDS011;27638;42.184;24.848;2022-09-02T10:45:58;33.15;;;23.52;;
41946;SDS011;27638;42.184;24.848;2022-09-02T10:56:24;38.65;;;25.50;;
41946;SDS011;27638;42.184;24.848;2022-09-02T10:59:10;39.47;;;25.45;;
41946;SDS011;27638;42.184;24.848;2022-09-02T11:02:05;35.72;;;24.50;;
41946;SDS011;27638;42.184;24.848;2022-09-02T11:04:44;27.45;;;18.17;;
41946;SDS011;27638;42.184;24.848;2022-09-02T11:07:17;12.80;;;8.02;;
41946;SDS011;27638;42.184;24.848;2022-09-02T11:09:53;7.22;;;5.45;;
41946;SDS011;27638;42.184;24.848;2022-09-02T11:12:28;7.75;;;4.57;;
41946;SDS011;27638;42.184;24.848;2022-09-02T11:15:00;8.13;;;4.65;;
41946;SDS011;27638;42.184;24.848;2022-09-02T11:20:55;6.15;;;4.72;;
41946;SDS011;27638;42.184;24.848;2022-09-02T11:29:09;10.27;;;5.70;;
41946;SDS011;27638;42.184;24.848;2022-09-02T11:31:43;6.18;;;4.90;;
41946;SDS011;27638;42.184;24.848;2022-09-02T11:34:18;5.82;;;4.70;;
41946;SDS011;27638;42.184;24.848;2022-09-02T11:37:03;8.70;;;5.45;;
41946;SDS011;27638;42.184;24.848;2022-09-02T11:58:39;8.63;;;5.90;;
41946;SDS011;27638;42.184;24.848;2022-09-02T12:03:48;10.73;;;7.80;;
41946;SDS011;27638;42.184;24.848;2022-09-02T12:06:20;11.77;;;7.70;;
41946;SDS011;27638;42.184;24.848;2022-09-02T12:14:05;9.50;;;7.22;;
41946;SDS011;27638;42.184;24.848;2022-09-02T12:16:58;12.50;;;7.10;;
41946;SDS011;27638;42.184;24.848;2022-09-02T12:19:27;12.23;;;6.75;;
41946;SDS011;27638;42.184;24.848;2022-09-02T12:24:50;14.63;;;8.55;;
41946;SDS011;27638;42.184;24.848;2022-09-02T12:27:24;17.75;;;9.10;;
41946;SDS011;27638;42.184;24.848;2022-09-02T12:29:50;12.75;;;9.13;;
41946;SDS011;27638;42.184;24.848;2022-09-02T12:35:11;14.65;;;10.57;;
41946;SDS011;27638;42.184;24.848;2022-09-02T12:37:54;16.45;;;10.27;;
41946;SDS011;27638;42.184;24.848;2022-09-02T12:40:31;19.42;;;10.30;;
41946;SDS011;27638;42.184;24.848;2022-09-02T12:43:02;16.02;;;10.65;;
41946;SDS011;27638;42.184;24.848;2022-09-02T12:45:40;15.32;;;10.10;;
41946;SDS011;27638;42.184;24.848;2022-09-02T12:56:03;16.17;;;9.68;;
41946;SDS011;27638;42.184;24.848;2022-09-02T12:58:44;17.98;;;10.13;;
41946;SDS011;27638;42.184;24.848;2022-09-02T13:32:26;18.30;;;9.02;;
41946;SDS011;27638;42.184;24.848;2022-09-02T13:34:55;15.38;;;8.32;;
41946;SDS011;27638;42.184;24.848;2022-09-02T13:39:52;11.13;;;8.07;;
41946;SDS011;27638;42.184;24.848;2022-09-02T13:42:21;12.00;;;8.60;;
41946;SDS011;27638;42.184;24.848;2022-09-02T13:44:48;17.02;;;9.00;;
41946;SDS011;27638;42.184;24.848;2022-09-02T13:47:14;9.80;;;8.32;;
41946;SDS011;27638;42.184;24.848;2022-09-02T13:49:44;11.60;;;8.07;;
41946;SDS011;27638;42.184;24.848;2022-09-02T13:52:13;13.40;;;7.22;;
41946;SDS011;27638;42.184;24.848;2022-09-02T13:54:45;14.60;;;8.18;;
41946;SDS011;27638;42.184;24.848;2022-09-02T13:57:16;12.07;;;6.57;;
41946;SDS011;27638;42.184;24.848;2022-09-02T14:02:27;8.13;;;6.22;;
41946;SDS011;27638;42.184;24.848;2022-09-02T14:05:02;7.53;;;6.25;;
41946;SDS011;27638;42.184;24.848;2022-09-02T14:07:39;17.20;;;6.88;;
41946;SDS011;27638;42.184;24.848;2022-09-02T14:10:08;10.73;;;6.60;;
41946;SDS011;27638;42.184;24.848;2022-09-02T14:12:36;9.23;;;6.10;;
41946;SDS011;27638;42.184;24.848;2022-09-02T14:15:04;12.75;;;6.65;;
41946;SDS011;27638;42.184;24.848;2022-09-02T14:17:31;10.98;;;6.72;;
41946;SDS011;27638;42.184;24.848;2022-09-02T14:22:41;13.82;;;6.72;;
41946;SDS011;27638;42.184;24.848;2022-09-02T14:25:08;9.13;;;6.78;;
41946;SDS011;27638;42.184;24.848;2022-09-02T14:27:39;11.95;;;7.72;;
41946;SDS011;27638;42.184;24.848;2022-09-02T14:30:37;9.20;;;6.15;;
41946;SDS011;27638;42.184;24.848;2022-09-02T14:38:28;11.38;;;7.32;;
41946;SDS011;27638;42.184;24.848;2022-09-02T14:41:24;10.18;;;6.80;;
41946;SDS011;27638;42.184;24.848;2022-09-02T14:44:08;10.32;;;7.53;;
41946;SDS011;27638;42.184;24.848;2022-09-02T14:49:05;11.43;;;7.95;;
41946;SDS011;27638;42.184;24.848;2022-09-02T14:51:36;13.90;;;8.73;;
41946;SDS011;27638;42.184;24.848;2022-09-02T14:54:03;12.65;;;8.13;;
41946;SDS011;27638;42.184;24.848;2022-09-02T14:56:49;11.57;;;8.13;;
41946;SDS011;27638;42.184;24.848;2022-09-02T14:59:17;11.80;;;8.95;;
41946;SDS011;27638;42.184;24.848;2022-09-02T15:01:50;14.20;;;8.55;;
41946;SDS011;27638;42.184;24.848;2022-09-02T15:04:18;15.40;;;8.75;;
41946;SDS011;27638;42.184;24.848;2022-09-02T15:06:44;16.17;;;9.20;;
41946;SDS011;27638;42.184;24.848;2022-09-02T15:09:11;13.60;;;9.48;;
41946;SDS011;27638;42.184;24.848;2022-09-02T15:11:39;19.00;;;10.80;;
41946;SDS011;27638;42.184;24.848;2022-09-02T15:14:07;15.18;;;10.75;;
41946;SDS011;27638;42.184;24.848;2022-09-02T15:16:32;12.93;;;10.55;;
41946;SDS011;27638;42.184;24.848;2022-09-02T15:18:58;14.88;;;11.52;;
41946;SDS011;27638;42.184;24.848;2022-09-02T15:21:23;19.92;;;12.98;;
41946;SDS011;27638;42.184;24.848;2022-09-02T15:23:49;22.17;;;15.35;;
41946;SDS011;27638;42.184;24.848;2022-09-02T15:26:15;22.23;;;16.63;;
41946;SDS011;27638;42.184;24.848;2022-09-02T15:28:40;30.17;;;18.48;;
41946;SDS011;27638;42.184;24.848;2022-09-02T15:31:08;31.00;;;19.65;;
41946;SDS011;27638;42.184;24.848;2022-09-02T15:33:33;24.27;;;18.80;;
41946;SDS011;27638;42.184;24.848;2022-09-02T15:36:09;24.85;;;17.58;;
41946;SDS011;27638;42.184;24.848;2022-09-02T15:38:37;24.00;;;17.58;;
41946;SDS011;27638;42.184;24.848;2022-09-02T15:41:21;25.25;;;17.40;;
41946;SDS011;27638;42.184;24.848;2022-09-02T15:43:48;26.95;;;19.70;;
41946;SDS011;27638;42.184;24.848;2022-09-02T15:46:18;29.02;;;20.27;;
41946;SDS011;27638;42.184;24.848;2022-09-02T15:48:46;26.85;;;19.08;;
41946;SDS011;27638;42.184;24.848;2022-09-02T15:51:16;29.27;;;18.63;;
41946;SDS011;27638;42.184;24.848;2022-09-02T15:53:43;23.35;;;17.75;;
41946;SDS011;27638;42.184;24.848;2022-09-02T15:56:15;27.75;;;17.58;;
41946;SDS011;27638;42.184;24.848;2022-09-02T15:58:41;27.42;;;17.40;;
41946;SDS011;27638;42.184;24.848;2022-09-02T16:01:07;21.35;;;16.40;;
41946;SDS011;27638;42.184;24.848;2022-09-02T16:03:33;22.60;;;16.45;;
41946;SDS011;27638;42.184;24.848;2022-09-02T16:06:00;20.80;;;16.15;;
41946;SDS011;27638;42.184;24.848;2022-09-02T16:08:26;23.38;;;15.48;;
41946;SDS011;27638;42.184;24.848;2022-09-02T16:10:51;21.65;;;16.73;;
41946;SDS011;27638;42.184;24.848;2022-09-02T16:13:17;23.42;;;15.50;;
41946;SDS011;27638;42.184;24.848;2022-09-02T16:15:42;21.48;;;15.25;;
41946;SDS011;27638;42.184;24.848;2022-09-02T16:18:10;22.75;;;14.98;;
41946;SDS011;27638;42.184;24.848;2022-09-02T16:20:35;20.58;;;15.15;;
41946;SDS011;27638;42.184;24.848;2022-09-02T16:23:01;22.20;;;15.60;;
41946;SDS011;27638;42.184;24.848;2022-09-02T16:25:26;22.30;;;14.60;;
41946;SDS011;27638;42.184;24.848;2022-09-02T16:27:52;22.42;;;16.30;;
41946;SDS011;27638;42.184;24.848;2022-09-02T16:30:17;30.85;;;17.80;;
41946;SDS011;27638;42.184;24.848;2022-09-02T16:32:43;23.52;;;17.40;;
41946;SDS011;27638;42.184;24.848;2022-09-02T16:35:09;21.75;;;16.00;;
41946;SDS011;27638;42.184;24.848;2022-09-02T16:37:34;18.63;;;15.02;;
41946;SDS011;27638;42.184;24.848;2022-09-02T16:40:00;25.48;;;18.00;;
41946;SDS011;27638;42.184;24.848;2022-09-02T16:42:27;22.70;;;17.80;;
41946;SDS011;27638;42.184;24.848;2022-09-02T16:44:52;23.15;;;16.85;;
41946;SDS011;27638;42.184;24.848;2022-09-02T16:47:18;23.98;;;17.42;;
41946;SDS011;27638;42.184;24.848;2022-09-02T16:49:43;21.88;;;17.05;;
41946;SDS011;27638;42.184;24.848;2022-09-02T16:52:10;23.73;;;16.88;;
41946;SDS011;27638;42.184;24.848;2022-09-02T16:54:36;18.45;;;15.30;;
41946;SDS011;27638;42.184;24.848;2022-09-02T16:57:01;17.42;;;14.52;;
41946;SDS011;27638;42.184;24.848;2022-09-02T16:59:27;18.92;;;14.77;;
41946;SDS011;27638;42.184;24.848;2022-09-02T17:01:55;18.63;;;14.27;;
41946;SDS011;27638;42.184;24.848;2022-09-02T17:04:21;19.42;;;14.10;;
41946;SDS011;27638;42.184;24.848;2022-09-02T17:06:47;19.25;;;13.73;;
41946;SDS011;27638;42.184;24.848;2022-09-02T17:09:12;18.27;;;12.40;;
41946;SDS011;27638;42.184;24.848;2022-09-02T17:11:38;21.92;;;12.60;;